sensor_id;sensor_type;location;lat;lon;timestamp;temperature;humidity
45319;DHT22;31057;48.498;32.260;2024-03-29T00:01:09;7.10;99.90
45319;DHT22;31057;48.498;32.260;2024-03-29T00:03:10;7.00;99.90
45319;DHT22;31057;48.498;32.260;2024-03-29T00:05:11;6.90;99.90
45319;DHT22;31057;48.498;32.260;2024-03-29T00:07:12;6.80;99.90
45319;DHT22;31057;48.498;32.260;2024-03-29T00:09:13;6.90;99.90
45319;DHT22;31057;48.498;32.260;2024-03-29T00:11:14;6.90;99.90
45319;DHT22;31057;48.498;32.260;2024-03-29T00:13:15;7.00;99.90
45319;DHT22;31057;48.498;32.260;2024-03-29T00:15:16;6.90;99.90
45319;DHT22;31057;48.498;32.260;2024-03-29T00:17:17;6.90;99.90
45319;DHT22;31057;48.498;32.260;2024-03-29T00:19:19;6.70;99.90
45319;DHT22;31057;48.498;32.260;2024-03-29T00:21:20;6.60;99.90
45319;DHT22;31057;48.498;32.260;2024-03-29T00:23:21;6.60;99.90
45319;DHT22;31057;48.498;32.260;2024-03-29T00:25:22;6.60;99.90
45319;DHT22;31057;48.498;32.260;2024-03-29T00:27:23;6.50;99.90
45319;DHT22;31057;48.498;32.260;2024-03-29T00:29:26;6.50;99.90
45319;DHT22;31057;48.498;32.260;2024-03-29T00:31:27;6.60;99.90
45319;DHT22;31057;48.498;32.260;2024-03-29T00:33:28;6.60;99.90
45319;DHT22;31057;48.498;32.260;2024-03-29T00:35:29;6.50;99.90
45319;DHT22;31057;48.498;32.260;2024-03-29T00:37:31;6.50;99.90
45319;DHT22;31057;48.498;32.260;2024-03-29T00:39:32;6.50;99.90
45319;DHT22;31057;48.498;32.260;2024-03-29T00:41:33;6.50;99.90
45319;DHT22;31057;48.498;32.260;2024-03-29T00:43:34;6.50;99.90
45319;DHT22;31057;48.498;32.260;2024-03-29T00:45:35;6.40;99.90
45319;DHT22;31057;48.498;32.260;2024-03-29T00:47:36;6.40;99.90
45319;DHT22;31057;48.498;32.260;2024-03-29T00:49:36;6.40;99.90
45319;DHT22;31057;48.498;32.260;2024-03-29T00:51:37;6.30;99.90
45319;DHT22;31057;48.498;32.260;2024-03-29T00:53:40;6.20;99.90
45319;DHT22;31057;48.498;32.260;2024-03-29T00:55:41;6.20;99.90
45319;DHT22;31057;48.498;32.260;2024-03-29T00:57:42;6.10;99.90
45319;DHT22;31057;48.498;32.260;2024-03-29T00:59:43;6.10;99.90
45319;DHT22;31057;48.498;32.260;2024-03-29T01:01:44;6.10;99.90
45319;DHT22;31057;48.498;32.260;2024-03-29T01:03:45;6.10;99.90
45319;DHT22;31057;48.498;32.260;2024-03-29T01:05:46;6.10;99.90
45319;DHT22;31057;48.498;32.260;2024-03-29T01:07:47;6.10;99.90
45319;DHT22;31057;48.498;32.260;2024-03-29T01:09:48;6.00;99.90
45319;DHT22;31057;48.498;32.260;2024-03-29T01:11:50;5.90;99.90
45319;DHT22;31057;48.498;32.260;2024-03-29T01:13:52;5.90;99.90
45319;DHT22;31057;48.498;32.260;2024-03-29T01:15:53;5.80;99.90
45319;DHT22;31057;48.498;32.260;2024-03-29T01:17:54;5.70;99.90
45319;DHT22;31057;48.498;32.260;2024-03-29T01:19:55;5.70;99.90
45319;DHT22;31057;48.498;32.260;2024-03-29T01:21:56;5.70;99.90
45319;DHT22;31057;48.498;32.260;2024-03-29T01:23:57;5.70;99.90
45319;DHT22;31057;48.498;32.260;2024-03-29T01:25:58;5.70;99.90
45319;DHT22;31057;48.498;32.260;2024-03-29T01:27:59;5.80;99.90
45319;DHT22;31057;48.498;32.260;2024-03-29T01:30:00;5.80;99.90
45319;DHT22;31057;48.498;32.260;2024-03-29T01:32:02;5.80;99.90
45319;DHT22;31057;48.498;32.260;2024-03-29T01:34:03;6.00;99.90
45319;DHT22;31057;48.498;32.260;2024-03-29T01:36:05;5.80;99.90
45319;DHT22;31057;48.498;32.260;2024-03-29T01:38:06;5.70;99.90
45319;DHT22;31057;48.498;32.260;2024-03-29T01:40:07;5.70;99.90
45319;DHT22;31057;48.498;32.260;2024-03-29T01:42:08;5.60;99.90
45319;DHT22;31057;48.498;32.260;2024-03-29T01:44:09;5.70;99.90
45319;DHT22;31057;48.498;32.260;2024-03-29T01:46:10;5.70;99.90
45319;DHT22;31057;48.498;32.260;2024-03-29T01:48:11;5.70;99.90
45319;DHT22;31057;48.498;32.260;2024-03-29T01:50:12;5.60;99.90
45319;DHT22;31057;48.498;32.260;2024-03-29T01:52:14;5.50;99.90
45319;DHT22;31057;48.498;32.260;2024-03-29T01:54:17;5.50;99.90
45319;DHT22;31057;48.498;32.260;2024-03-29T01:56:21;5.50;99.90
45319;DHT22;31057;48.498;32.260;2024-03-29T01:58:23;5.40;99.90
45319;DHT22;31057;48.498;32.260;2024-03-29T02:00:24;5.50;99.90
45319;DHT22;31057;48.498;32.260;2024-03-29T02:02:25;5.60;99.90
45319;DHT22;31057;48.498;32.260;2024-03-29T02:04:26;5.50;99.90
45319;DHT22;31057;48.498;32.260;2024-03-29T02:06:28;5.50;99.90
45319;DHT22;31057;48.498;32.260;2024-03-29T02:08:29;5.50;99.90
45319;DHT22;31057;48.498;32.260;2024-03-29T02:10:30;5.40;99.90
45319;DHT22;31057;48.498;32.260;2024-03-29T02:12:31;5.40;99.90
45319;DHT22;31057;48.498;32.260;2024-03-29T02:14:32;5.30;99.90
45319;DHT22;31057;48.498;32.260;2024-03-29T02:16:33;5.30;99.90
45319;DHT22;31057;48.498;32.260;2024-03-29T02:18:34;5.20;99.90
45319;DHT22;31057;48.498;32.260;2024-03-29T02:20:35;5.10;99.90
45319;DHT22;31057;48.498;32.260;2024-03-29T02:22:46;5.10;99.90
45319;DHT22;31057;48.498;32.260;2024-03-29T02:24:49;5.10;99.90
45319;DHT22;31057;48.498;32.260;2024-03-29T02:26:50;5.20;99.90
45319;DHT22;31057;48.498;32.260;2024-03-29T02:28:51;5.10;99.90
45319;DHT22;31057;48.498;32.260;2024-03-29T02:30:52;5.00;99.90
45319;DHT22;31057;48.498;32.260;2024-03-29T02:32:53;5.00;99.90
45319;DHT22;31057;48.498;32.260;2024-03-29T02:34:54;5.00;99.90
45319;DHT22;31057;48.498;32.260;2024-03-29T02:36:55;5.00;99.90
45319;DHT22;31057;48.498;32.260;2024-03-29T02:38:57;4.90;99.90
45319;DHT22;31057;48.498;32.260;2024-03-29T02:40:58;4.90;99.90
45319;DHT22;31057;48.498;32.260;2024-03-29T02:42:59;4.80;99.90
45319;DHT22;31057;48.498;32.260;2024-03-29T02:45:00;4.80;99.90
45319;DHT22;31057;48.498;32.260;2024-03-29T02:47:01;4.80;99.90
45319;DHT22;31057;48.498;32.260;2024-03-29T02:49:02;4.80;99.90
45319;DHT22;31057;48.498;32.260;2024-03-29T02:51:04;4.80;99.90
45319;DHT22;31057;48.498;32.260;2024-03-29T02:53:05;4.70;99.90
45319;DHT22;31057;48.498;32.260;2024-03-29T02:55:06;4.70;99.90
45319;DHT22;31057;48.498;32.260;2024-03-29T02:57:07;4.70;99.90
45319;DHT22;31057;48.498;32.260;2024-03-29T02:59:08;4.70;99.90
45319;DHT22;31057;48.498;32.260;2024-03-29T03:01:09;4.70;99.90
45319;DHT22;31057;48.498;32.260;2024-03-29T03:03:10;4.70;99.90
45319;DHT22;31057;48.498;32.260;2024-03-29T03:05:11;4.70;99.90
45319;DHT22;31057;48.498;32.260;2024-03-29T03:07:12;4.70;99.90
45319;DHT22;31057;48.498;32.260;2024-03-29T03:09:31;4.70;99.90
45319;DHT22;31057;48.498;32.260;2024-03-29T03:11:51;4.70;99.90
45319;DHT22;31057;48.498;32.260;2024-03-29T03:13:51;4.70;99.90
45319;DHT22;31057;48.498;32.260;2024-03-29T03:15:52;4.70;99.90
45319;DHT22;31057;48.498;32.260;2024-03-29T03:17:53;4.60;99.90
45319;DHT22;31057;48.498;32.260;2024-03-29T03:19:54;4.70;99.90
45319;DHT22;31057;48.498;32.260;2024-03-29T03:21:55;4.60;99.90
45319;DHT22;31057;48.498;32.260;2024-03-29T03:23:56;4.60;99.90
45319;DHT22;31057;48.498;32.260;2024-03-29T03:25:59;4.60;99.90
45319;DHT22;31057;48.498;32.260;2024-03-29T03:28:00;4.70;99.90
45319;DHT22;31057;48.498;32.260;2024-03-29T03:30:01;4.60;99.90
45319;DHT22;31057;48.498;32.260;2024-03-29T03:32:02;4.70;99.90
45319;DHT22;31057;48.498;32.260;2024-03-29T03:34:03;4.60;99.90
45319;DHT22;31057;48.498;32.260;2024-03-29T03:36:04;4.60;99.90
45319;DHT22;31057;48.498;32.260;2024-03-29T03:38:05;4.70;99.90
45319;DHT22;31057;48.498;32.260;2024-03-29T03:40:07;4.60;99.90
45319;DHT22;31057;48.498;32.260;2024-03-29T03:42:08;4.60;99.90
45319;DHT22;31057;48.498;32.260;2024-03-29T03:44:08;4.60;99.90
45319;DHT22;31057;48.498;32.260;2024-03-29T03:46:09;4.70;99.90
45319;DHT22;31057;48.498;32.260;2024-03-29T03:48:11;4.60;99.90
45319;DHT22;31057;48.498;32.260;2024-03-29T03:50:12;4.70;99.90
45319;DHT22;31057;48.498;32.260;2024-03-29T03:52:13;4.70;99.90
45319;DHT22;31057;48.498;32.260;2024-03-29T03:54:14;4.80;99.90
45319;DHT22;31057;48.498;32.260;2024-03-29T03:56:15;4.80;99.90
45319;DHT22;31057;48.498;32.260;2024-03-29T03:58:16;4.80;99.90
45319;DHT22;31057;48.498;32.260;2024-03-29T04:00:18;4.90;99.90
45319;DHT22;31057;48.498;32.260;2024-03-29T04:02:20;4.90;99.90
45319;DHT22;31057;48.498;32.260;2024-03-29T04:04:21;4.90;99.90
45319;DHT22;31057;48.498;32.260;2024-03-29T04:06:22;5.00;99.90
45319;DHT22;31057;48.498;32.260;2024-03-29T04:08:23;5.00;99.90
45319;DHT22;31057;48.498;32.260;2024-03-29T04:10:24;5.10;99.90
45319;DHT22;31057;48.498;32.260;2024-03-29T04:12:25;5.20;99.90
45319;DHT22;31057;48.498;32.260;2024-03-29T04:14:26;5.20;99.90
45319;DHT22;31057;48.498;32.260;2024-03-29T04:16:26;5.20;99.90
45319;DHT22;31057;48.498;32.260;2024-03-29T04:18:27;5.30;99.90
45319;DHT22;31057;48.498;32.260;2024-03-29T04:20:28;5.30;99.90
45319;DHT22;31057;48.498;32.260;2024-03-29T04:22:30;5.20;99.90
45319;DHT22;31057;48.498;32.260;2024-03-29T04:24:32;5.30;99.90
45319;DHT22;31057;48.498;32.260;2024-03-29T04:26:33;5.40;99.90
45319;DHT22;31057;48.498;32.260;2024-03-29T04:28:34;5.40;99.90
45319;DHT22;31057;48.498;32.260;2024-03-29T04:30:35;5.40;99.90
45319;DHT22;31057;48.498;32.260;2024-03-29T04:32:36;5.40;99.90
45319;DHT22;31057;48.498;32.260;2024-03-29T04:34:38;5.40;99.90
45319;DHT22;31057;48.498;32.260;2024-03-29T04:36:38;5.50;99.90
45319;DHT22;31057;48.498;32.260;2024-03-29T04:38:39;5.60;99.90
45319;DHT22;31057;48.498;32.260;2024-03-29T04:40:40;5.60;99.90
45319;DHT22;31057;48.498;32.260;2024-03-29T04:42:41;5.60;99.90
45319;DHT22;31057;48.498;32.260;2024-03-29T04:44:42;5.70;99.90
45319;DHT22;31057;48.498;32.260;2024-03-29T04:46:43;5.70;99.90
45319;DHT22;31057;48.498;32.260;2024-03-29T04:48:44;5.70;99.90
45319;DHT22;31057;48.498;32.260;2024-03-29T04:50:46;5.80;99.90
45319;DHT22;31057;48.498;32.260;2024-03-29T04:52:47;5.70;99.90
45319;DHT22;31057;48.498;32.260;2024-03-29T04:54:48;5.80;99.90
45319;DHT22;31057;48.498;32.260;2024-03-29T04:56:49;5.80;99.90
45319;DHT22;31057;48.498;32.260;2024-03-29T04:58:50;5.90;99.90
45319;DHT22;31057;48.498;32.260;2024-03-29T05:00:51;5.90;99.90
45319;DHT22;31057;48.498;32.260;2024-03-29T05:02:52;5.90;99.90
45319;DHT22;31057;48.498;32.260;2024-03-29T05:04:54;6.00;99.90
45319;DHT22;31057;48.498;32.260;2024-03-29T05:06:57;6.00;99.90
45319;DHT22;31057;48.498;32.260;2024-03-29T05:08:58;6.00;99.90
45319;DHT22;31057;48.498;32.260;2024-03-29T05:10:59;6.10;99.90
45319;DHT22;31057;48.498;32.260;2024-03-29T05:13:00;6.10;99.90
45319;DHT22;31057;48.498;32.260;2024-03-29T05:15:01;6.20;99.90
45319;DHT22;31057;48.498;32.260;2024-03-29T05:17:03;6.20;99.90
45319;DHT22;31057;48.498;32.260;2024-03-29T05:19:04;6.30;99.90
45319;DHT22;31057;48.498;32.260;2024-03-29T05:21:06;6.40;99.90
45319;DHT22;31057;48.498;32.260;2024-03-29T05:23:07;6.40;99.90
45319;DHT22;31057;48.498;32.260;2024-03-29T05:25:08;6.40;99.90
45319;DHT22;31057;48.498;32.260;2024-03-29T05:27:09;6.50;99.90
45319;DHT22;31057;48.498;32.260;2024-03-29T05:29:10;6.50;99.90
45319;DHT22;31057;48.498;32.260;2024-03-29T05:31:14;6.50;99.90
45319;DHT22;31057;48.498;32.260;2024-03-29T05:33:15;6.60;99.90
45319;DHT22;31057;48.498;32.260;2024-03-29T05:35:17;6.70;99.90
45319;DHT22;31057;48.498;32.260;2024-03-29T05:37:18;6.70;99.90
45319;DHT22;31057;48.498;32.260;2024-03-29T05:39:19;6.70;99.90
45319;DHT22;31057;48.498;32.260;2024-03-29T05:41:20;6.80;99.90
45319;DHT22;31057;48.498;32.260;2024-03-29T05:43:21;6.90;99.90
45319;DHT22;31057;48.498;32.260;2024-03-29T05:45:27;7.00;99.90
45319;DHT22;31057;48.498;32.260;2024-03-29T05:47:28;7.00;99.90
45319;DHT22;31057;48.498;32.260;2024-03-29T05:49:29;7.10;99.90
45319;DHT22;31057;48.498;32.260;2024-03-29T05:51:30;7.10;99.90
45319;DHT22;31057;48.498;32.260;2024-03-29T05:53:31;7.30;99.90
45319;DHT22;31057;48.498;32.260;2024-03-29T05:55:32;7.30;99.90
45319;DHT22;31057;48.498;32.260;2024-03-29T05:57:33;7.40;99.90
45319;DHT22;31057;48.498;32.260;2024-03-29T05:59:35;7.50;99.90
45319;DHT22;31057;48.498;32.260;2024-03-29T06:01:36;7.50;99.90
45319;DHT22;31057;48.498;32.260;2024-03-29T06:03:37;7.60;99.90
45319;DHT22;31057;48.498;32.260;2024-03-29T06:05:39;7.60;99.90
45319;DHT22;31057;48.498;32.260;2024-03-29T06:07:40;7.70;99.90
45319;DHT22;31057;48.498;32.260;2024-03-29T06:09:41;7.80;99.90
45319;DHT22;31057;48.498;32.260;2024-03-29T06:11:43;8.00;99.90
45319;DHT22;31057;48.498;32.260;2024-03-29T06:13:44;8.10;99.90
45319;DHT22;31057;48.498;32.260;2024-03-29T06:15:54;8.30;99.90
45319;DHT22;31057;48.498;32.260;2024-03-29T06:18:14;8.40;99.90
45319;DHT22;31057;48.498;32.260;2024-03-29T06:20:17;8.50;99.90
45319;DHT22;31057;48.498;32.260;2024-03-29T06:22:18;8.70;99.90
45319;DHT22;31057;48.498;32.260;2024-03-29T06:24:19;8.80;99.90
45319;DHT22;31057;48.498;32.260;2024-03-29T06:26:21;8.90;99.90
45319;DHT22;31057;48.498;32.260;2024-03-29T06:28:21;9.00;99.90
45319;DHT22;31057;48.498;32.260;2024-03-29T06:30:22;9.00;99.90
45319;DHT22;31057;48.498;32.260;2024-03-29T06:32:23;9.10;99.90
45319;DHT22;31057;48.498;32.260;2024-03-29T06:34:25;9.10;99.90
45319;DHT22;31057;48.498;32.260;2024-03-29T06:36:26;9.30;99.90
45319;DHT22;31057;48.498;32.260;2024-03-29T06:38:27;9.40;99.90
45319;DHT22;31057;48.498;32.260;2024-03-29T06:40:28;9.60;99.90
45319;DHT22;31057;48.498;32.260;2024-03-29T06:42:29;9.80;99.90
45319;DHT22;31057;48.498;32.260;2024-03-29T06:44:30;10.10;99.90
45319;DHT22;31057;48.498;32.260;2024-03-29T06:46:31;10.20;99.90
45319;DHT22;31057;48.498;32.260;2024-03-29T06:48:34;10.40;99.90
45319;DHT22;31057;48.498;32.260;2024-03-29T06:50:36;10.50;99.90
45319;DHT22;31057;48.498;32.260;2024-03-29T06:52:37;10.60;99.90
45319;DHT22;31057;48.498;32.260;2024-03-29T06:54:38;10.80;99.90
45319;DHT22;31057;48.498;32.260;2024-03-29T06:56:40;10.80;99.90
45319;DHT22;31057;48.498;32.260;2024-03-29T06:58:40;11.00;99.90
45319;DHT22;31057;48.498;32.260;2024-03-29T07:00:43;11.00;99.90
45319;DHT22;31057;48.498;32.260;2024-03-29T07:02:44;11.00;99.90
45319;DHT22;31057;48.498;32.260;2024-03-29T07:04:45;11.20;99.90
45319;DHT22;31057;48.498;32.260;2024-03-29T07:06:46;11.30;99.90
45319;DHT22;31057;48.498;32.260;2024-03-29T07:08:53;11.50;99.90
45319;DHT22;31057;48.498;32.260;2024-03-29T07:11:00;11.60;99.90
45319;DHT22;31057;48.498;32.260;2024-03-29T07:13:01;11.90;99.90
45319;DHT22;31057;48.498;32.260;2024-03-29T07:15:02;11.90;99.90
45319;DHT22;31057;48.498;32.260;2024-03-29T07:17:04;11.80;99.90
45319;DHT22;31057;48.498;32.260;2024-03-29T07:19:05;11.70;99.90
45319;DHT22;31057;48.498;32.260;2024-03-29T07:21:06;11.70;99.90
45319;DHT22;31057;48.498;32.260;2024-03-29T07:23:07;11.60;99.90
45319;DHT22;31057;48.498;32.260;2024-03-29T07:25:08;11.60;99.90
45319;DHT22;31057;48.498;32.260;2024-03-29T07:27:09;11.70;99.90
45319;DHT22;31057;48.498;32.260;2024-03-29T07:29:11;11.90;99.90
45319;DHT22;31057;48.498;32.260;2024-03-29T07:31:12;11.90;99.90
45319;DHT22;31057;48.498;32.260;2024-03-29T07:33:13;12.00;99.90
45319;DHT22;31057;48.498;32.260;2024-03-29T07:35:16;12.20;99.90
45319;DHT22;31057;48.498;32.260;2024-03-29T07:37:19;12.10;99.90
45319;DHT22;31057;48.498;32.260;2024-03-29T07:39:21;12.30;99.90
45319;DHT22;31057;48.498;32.260;2024-03-29T07:41:23;12.40;99.90
45319;DHT22;31057;48.498;32.260;2024-03-29T07:43:24;12.60;99.90
45319;DHT22;31057;48.498;32.260;2024-03-29T07:45:25;12.80;99.90
45319;DHT22;31057;48.498;32.260;2024-03-29T07:47:26;13.10;99.90
45319;DHT22;31057;48.498;32.260;2024-03-29T07:49:27;13.40;99.90
45319;DHT22;31057;48.498;32.260;2024-03-29T07:51:29;13.60;99.90
45319;DHT22;31057;48.498;32.260;2024-03-29T07:53:30;13.80;99.90
45319;DHT22;31057;48.498;32.260;2024-03-29T07:55:31;13.90;99.90
45319;DHT22;31057;48.498;32.260;2024-03-29T07:57:32;14.00;99.90
45319;DHT22;31057;48.498;32.260;2024-03-29T07:59:33;14.10;99.90
45319;DHT22;31057;48.498;32.260;2024-03-29T08:01:34;14.20;99.90
45319;DHT22;31057;48.498;32.260;2024-03-29T08:03:35;14.40;99.90
45319;DHT22;31057;48.498;32.260;2024-03-29T08:05:37;14.50;99.90
45319;DHT22;31057;48.498;32.260;2024-03-29T08:07:38;14.90;99.90
45319;DHT22;31057;48.498;32.260;2024-03-29T08:09:39;15.10;99.90
45319;DHT22;31057;48.498;32.260;2024-03-29T08:11:40;15.40;99.90
45319;DHT22;31057;48.498;32.260;2024-03-29T08:13:41;15.50;99.90
45319;DHT22;31057;48.498;32.260;2024-03-29T08:15:42;15.80;99.90
45319;DHT22;31057;48.498;32.260;2024-03-29T08:17:44;15.90;99.90
45319;DHT22;31057;48.498;32.260;2024-03-29T08:19:47;15.90;99.90
45319;DHT22;31057;48.498;32.260;2024-03-29T08:21:48;15.90;99.90
45319;DHT22;31057;48.498;32.260;2024-03-29T08:23:49;15.90;99.90
45319;DHT22;31057;48.498;32.260;2024-03-29T08:25:51;15.90;99.90
45319;DHT22;31057;48.498;32.260;2024-03-29T08:27:52;16.10;99.90
45319;DHT22;31057;48.498;32.260;2024-03-29T08:29:59;16.50;99.90
45319;DHT22;31057;48.498;32.260;2024-03-29T08:32:00;16.60;99.90
45319;DHT22;31057;48.498;32.260;2024-03-29T08:34:01;16.50;99.90
45319;DHT22;31057;48.498;32.260;2024-03-29T08:36:02;16.40;99.90
45319;DHT22;31057;48.498;32.260;2024-03-29T08:38:03;16.30;99.90
45319;DHT22;31057;48.498;32.260;2024-03-29T08:40:05;16.00;99.90
45319;DHT22;31057;48.498;32.260;2024-03-29T08:42:06;15.80;99.90
45319;DHT22;31057;48.498;32.260;2024-03-29T08:44:08;15.70;99.90
45319;DHT22;31057;48.498;32.260;2024-03-29T08:46:09;15.70;99.90
45319;DHT22;31057;48.498;32.260;2024-03-29T08:48:10;15.90;99.90
45319;DHT22;31057;48.498;32.260;2024-03-29T08:50:11;15.90;99.90
45319;DHT22;31057;48.498;32.260;2024-03-29T08:52:12;15.90;99.90
45319;DHT22;31057;48.498;32.260;2024-03-29T08:54:13;15.80;99.90
45319;DHT22;31057;48.498;32.260;2024-03-29T08:56:14;15.70;99.90
45319;DHT22;31057;48.498;32.260;2024-03-29T08:58:16;15.70;99.90
45319;DHT22;31057;48.498;32.260;2024-03-29T09:00:18;15.90;99.90
45319;DHT22;31057;48.498;32.260;2024-03-29T09:02:19;15.90;99.90
45319;DHT22;31057;48.498;32.260;2024-03-29T09:04:20;16.00;99.90
45319;DHT22;31057;48.498;32.260;2024-03-29T09:06:21;16.10;99.90
45319;DHT22;31057;48.498;32.260;2024-03-29T09:08:22;16.20;99.90
45319;DHT22;31057;48.498;32.260;2024-03-29T09:10:23;16.30;99.90
45319;DHT22;31057;48.498;32.260;2024-03-29T09:12:27;16.50;99.90
45319;DHT22;31057;48.498;32.260;2024-03-29T09:14:28;16.60;99.90
45319;DHT22;31057;48.498;32.260;2024-03-29T09:16:30;16.70;99.90
45319;DHT22;31057;48.498;32.260;2024-03-29T09:18:31;16.80;99.90
45319;DHT22;31057;48.498;32.260;2024-03-29T09:20:31;16.80;99.90
45319;DHT22;31057;48.498;32.260;2024-03-29T09:22:32;17.00;99.90
45319;DHT22;31057;48.498;32.260;2024-03-29T09:24:33;17.10;99.90
45319;DHT22;31057;48.498;32.260;2024-03-29T09:26:35;17.10;99.90
45319;DHT22;31057;48.498;32.260;2024-03-29T09:28:36;17.20;99.90
45319;DHT22;31057;48.498;32.260;2024-03-29T09:30:37;17.10;99.90
45319;DHT22;31057;48.498;32.260;2024-03-29T09:32:38;17.20;99.90
45319;DHT22;31057;48.498;32.260;2024-03-29T09:34:40;17.00;99.90
45319;DHT22;31057;48.498;32.260;2024-03-29T09:36:40;17.00;99.90
45319;DHT22;31057;48.498;32.260;2024-03-29T09:38:42;17.20;99.90
45319;DHT22;31057;48.498;32.260;2024-03-29T09:40:43;17.20;99.90
45319;DHT22;31057;48.498;32.260;2024-03-29T09:42:44;16.90;99.90
45319;DHT22;31057;48.498;32.260;2024-03-29T09:44:46;16.70;99.90
45319;DHT22;31057;48.498;32.260;2024-03-29T09:46:47;16.60;99.90
45319;DHT22;31057;48.498;32.260;2024-03-29T09:48:49;16.60;99.90
45319;DHT22;31057;48.498;32.260;2024-03-29T09:50:52;16.50;99.90
45319;DHT22;31057;48.498;32.260;2024-03-29T09:52:55;16.60;99.90
45319;DHT22;31057;48.498;32.260;2024-03-29T09:54:57;16.80;99.90
45319;DHT22;31057;48.498;32.260;2024-03-29T09:56:58;16.80;99.90
45319;DHT22;31057;48.498;32.260;2024-03-29T09:58:59;16.70;99.90
45319;DHT22;31057;48.498;32.260;2024-03-29T10:01:03;16.60;99.90
45319;DHT22;31057;48.498;32.260;2024-03-29T10:03:05;16.60;99.90
45319;DHT22;31057;48.498;32.260;2024-03-29T10:05:08;16.60;99.90
45319;DHT22;31057;48.498;32.260;2024-03-29T10:07:11;16.80;99.90
45319;DHT22;31057;48.498;32.260;2024-03-29T10:09:18;16.90;99.90
45319;DHT22;31057;48.498;32.260;2024-03-29T10:11:19;17.10;99.90
45319;DHT22;31057;48.498;32.260;2024-03-29T10:13:22;17.00;99.90
45319;DHT22;31057;48.498;32.260;2024-03-29T10:15:24;17.10;99.90
45319;DHT22;31057;48.498;32.260;2024-03-29T10:17:28;17.20;99.90
45319;DHT22;31057;48.498;32.260;2024-03-29T10:19:30;17.40;99.90
45319;DHT22;31057;48.498;32.260;2024-03-29T10:21:33;17.70;99.90
45319;DHT22;31057;48.498;32.260;2024-03-29T10:23:35;17.80;99.90
45319;DHT22;31057;48.498;32.260;2024-03-29T10:25:36;17.80;99.90
45319;DHT22;31057;48.498;32.260;2024-03-29T10:27:38;17.80;99.90
45319;DHT22;31057;48.498;32.260;2024-03-29T10:29:40;17.70;99.90
45319;DHT22;31057;48.498;32.260;2024-03-29T10:31:41;17.50;99.90
45319;DHT22;31057;48.498;32.260;2024-03-29T10:33:43;17.40;99.90
45319;DHT22;31057;48.498;32.260;2024-03-29T10:35:47;17.20;99.90
45319;DHT22;31057;48.498;32.260;2024-03-29T10:37:48;17.10;99.90
45319;DHT22;31057;48.498;32.260;2024-03-29T10:39:50;16.90;99.90
45319;DHT22;31057;48.498;32.260;2024-03-29T10:41:52;16.80;99.90
45319;DHT22;31057;48.498;32.260;2024-03-29T10:43:55;16.60;99.90
45319;DHT22;31057;48.498;32.260;2024-03-29T10:45:57;16.20;99.90
45319;DHT22;31057;48.498;32.260;2024-03-29T10:48:03;15.90;99.90
45319;DHT22;31057;48.498;32.260;2024-03-29T10:50:05;15.20;99.90
45319;DHT22;31057;48.498;32.260;2024-03-29T10:52:06;14.70;99.90
45319;DHT22;31057;48.498;32.260;2024-03-29T10:54:09;14.50;99.90
45319;DHT22;31057;48.498;32.260;2024-03-29T10:56:12;14.20;99.90
45319;DHT22;31057;48.498;32.260;2024-03-29T10:58:16;13.90;99.90
45319;DHT22;31057;48.498;32.260;2024-03-29T11:00:19;13.90;99.90
45319;DHT22;31057;48.498;32.260;2024-03-29T11:05:01;14.00;99.90
45319;DHT22;31057;48.498;32.260;2024-03-29T11:07:09;14.10;99.90
45319;DHT22;31057;48.498;32.260;2024-03-29T11:09:14;14.30;99.90
45319;DHT22;31057;48.498;32.260;2024-03-29T11:11:16;14.40;99.90
45319;DHT22;31057;48.498;32.260;2024-03-29T11:15:45;14.60;99.90
45319;DHT22;31057;48.498;32.260;2024-03-29T11:17:47;15.20;99.90
45319;DHT22;31057;48.498;32.260;2024-03-29T11:19:49;15.10;99.90
45319;DHT22;31057;48.498;32.260;2024-03-29T11:21:51;15.20;99.90
45319;DHT22;31057;48.498;32.260;2024-03-29T11:23:53;15.70;99.90
45319;DHT22;31057;48.498;32.260;2024-03-29T11:25:55;15.90;99.90
45319;DHT22;31057;48.498;32.260;2024-03-29T11:28:07;15.50;99.90
45319;DHT22;31057;48.498;32.260;2024-03-29T11:30:17;15.50;99.90
45319;DHT22;31057;48.498;32.260;2024-03-29T11:32:37;15.70;99.90
45319;DHT22;31057;48.498;32.260;2024-03-29T11:34:45;15.90;99.90
45319;DHT22;31057;48.498;32.260;2024-03-29T11:36:46;16.20;99.90
45319;DHT22;31057;48.498;32.260;2024-03-29T11:38:48;16.30;99.90
45319;DHT22;31057;48.498;32.260;2024-03-29T11:41:22;16.40;99.90
45319;DHT22;31057;48.498;32.260;2024-03-29T11:43:24;16.50;99.90
45319;DHT22;31057;48.498;32.260;2024-03-29T11:45:27;16.80;99.90
45319;DHT22;31057;48.498;32.260;2024-03-29T11:47:32;16.70;99.90
45319;DHT22;31057;48.498;32.260;2024-03-29T11:49:33;17.10;99.90
45319;DHT22;31057;48.498;32.260;2024-03-29T11:51:34;17.50;99.90
45319;DHT22;31057;48.498;32.260;2024-03-29T11:53:35;17.70;99.90
45319;DHT22;31057;48.498;32.260;2024-03-29T11:55:36;17.40;99.90
45319;DHT22;31057;48.498;32.260;2024-03-29T11:57:37;17.20;99.90
45319;DHT22;31057;48.498;32.260;2024-03-29T11:59:41;17.20;99.90
45319;DHT22;31057;48.498;32.260;2024-03-29T12:01:42;17.40;99.90
45319;DHT22;31057;48.498;32.260;2024-03-29T12:03:43;17.70;99.90
45319;DHT22;31057;48.498;32.260;2024-03-29T12:05:49;17.50;99.90
45319;DHT22;31057;48.498;32.260;2024-03-29T12:07:55;17.50;99.90
45319;DHT22;31057;48.498;32.260;2024-03-29T12:09:57;17.10;99.90
45319;DHT22;31057;48.498;32.260;2024-03-29T12:11:58;17.30;99.90
45319;DHT22;31057;48.498;32.260;2024-03-29T12:14:12;17.20;99.90
45319;DHT22;31057;48.498;32.260;2024-03-29T12:16:12;17.00;99.90
45319;DHT22;31057;48.498;32.260;2024-03-29T12:18:13;17.10;99.90
45319;DHT22;31057;48.498;32.260;2024-03-29T12:20:16;17.10;99.90
45319;DHT22;31057;48.498;32.260;2024-03-29T12:22:17;17.10;99.90
45319;DHT22;31057;48.498;32.260;2024-03-29T12:24:20;17.10;99.90
45319;DHT22;31057;48.498;32.260;2024-03-29T12:26:22;17.60;99.90
45319;DHT22;31057;48.498;32.260;2024-03-29T12:28:24;18.00;99.90
45319;DHT22;31057;48.498;32.260;2024-03-29T12:30:26;17.50;99.90
45319;DHT22;31057;48.498;32.260;2024-03-29T12:32:28;17.20;99.90
45319;DHT22;31057;48.498;32.260;2024-03-29T12:34:30;17.10;99.90
45319;DHT22;31057;48.498;32.260;2024-03-29T12:36:32;17.00;99.90
45319;DHT22;31057;48.498;32.260;2024-03-29T12:38:34;16.80;99.90
45319;DHT22;31057;48.498;32.260;2024-03-29T12:40:35;16.70;99.90
45319;DHT22;31057;48.498;32.260;2024-03-29T12:43:11;16.80;99.90
45319;DHT22;31057;48.498;32.260;2024-03-29T12:45:12;16.50;99.90
45319;DHT22;31057;48.498;32.260;2024-03-29T12:47:13;16.40;99.90
45319;DHT22;31057;48.498;32.260;2024-03-29T12:49:16;16.10;99.90
45319;DHT22;31057;48.498;32.260;2024-03-29T12:51:18;16.30;99.90